Time,TemperatureF,DewpointF,PressureIn,WindDirection,WindDirectionDegrees,WindSpeedMPH,WindSpeedGustMPH,Humidity,HourlyPrecipIn,Conditions,Clouds,dailyrainin,SoftwareType,DateUTC
2013-02-04 00:08:00,57.5,47.0,30.11,North,11,0.0,0.0,69,0.00,,,0.00,weatherlink.com 1.10,2013-02-04 05:08:00,
2013-02-04 00:23:00,57.4,48.0,30.10,North,11,0.0,0.0,71,0.00,,,0.00,weatherlink.com 1.10,2013-02-04 05:23:00,
2013-02-04 00:38:00,57.7,49.0,30.10,North,11,0.0,0.0,72,0.00,,,0.00,weatherlink.com 1.10,2013-02-04 05:38:00,
2013-02-04 00:54:00,57.2,49.0,30.09,North,11,0.0,0.0,73,0.00,,,0.00,weatherlink.com 1.10,2013-02-04 05:54:00,
2013-02-04 01:09:00,56.8,49.0,30.09,North,11,0.0,0.0,74,0.00,,,0.00,weatherlink.com 1.10,2013-02-04 06:09:00,
2013-02-04 01:24:00,56.4,48.0,30.09,North,360,0.0,0.0,74,0.00,,,0.00,weatherlink.com 1.10,2013-02-04 06:24:00,
2013-02-04 01:39:00,56.2,47.0,30.09,WNW,300,0.0,4.0,71,0.00,,,0.00,weatherlink.com 1.10,2013-02-04 06:39:00,
2013-02-04 01:54:00,56.9,46.0,30.09,WNW,303,0.0,0.0,68,0.00,,,0.00,weatherlink.com 1.10,2013-02-04 06:54:00,
2013-02-04 02:09:00,57.4,46.0,30.09,NW,310,0.0,4.0,67,0.00,,,0.00,weatherlink.com 1.10,2013-02-04 07:09:00,
2013-02-04 02:24:00,57.4,47.0,30.09,NW,320,0.0,0.0,68,0.00,,,0.00,weatherlink.com 1.10,2013-02-04 07:24:00,
2013-02-04 02:39:00,57.1,47.0,30.09,NNW,327,0.0,6.0,68,0.00,,,0.00,weatherlink.com 1.10,2013-02-04 07:39:00,
2013-02-04 02:54:00,56.6,46.0,30.09,NW,321,0.0,3.0,69,0.00,,,0.00,weatherlink.com 1.10,2013-02-04 07:54:00,
2013-02-04 03:09:00,56.4,47.0,30.09,NNW,330,0.0,5.0,70,0.00,,,0.00,weatherlink.com 1.10,2013-02-04 08:09:00,
2013-02-04 03:24:00,55.9,47.0,30.09,NNW,330,0.0,0.0,71,0.00,,,0.00,weatherlink.com 1.10,2013-02-04 08:24:00,
2013-02-04 03:39:00,55.8,47.0,30.09,NNW,329,0.0,0.0,72,0.00,,,0.00,weatherlink.com 1.10,2013-02-04 08:39:00,
2013-02-04 03:54:00,55.5,47.0,30.10,NNW,330,0.0,1.0,74,0.00,,,0.00,weatherlink.com 1.10,2013-02-04 08:54:00,
2013-02-04 04:09:00,55.2,47.0,30.09,NNW,330,0.0,2.0,75,0.00,,,0.00,weatherlink.com 1.10,2013-02-04 09:09:00,
2013-02-04 04:24:00,54.7,48.0,30.09,NNW,330,0.0,4.0,77,0.00,,,0.00,weatherlink.com 1.10,2013-02-04 09:24:00,
2013-02-04 04:39:00,54.4,48.0,30.09,NNW,332,0.0,0.0,78,0.00,,,0.00,weatherlink.com 1.10,2013-02-04 09:39:00,
2013-02-04 04:54:00,54.4,47.0,30.09,NNW,331,3.0,5.0,77,0.00,,,0.00,weatherlink.com 1.10,2013-02-04 09:54:00,
2013-02-04 05:09:00,54.6,45.0,30.10,NNW,338,0.0,7.0,70,0.00,,,0.00,weatherlink.com 1.10,2013-02-04 10:09:00,
2013-02-04 05:24:00,54.7,43.0,30.10,NNW,339,3.0,6.0,66,0.00,,,0.00,weatherlink.com 1.10,2013-02-04 10:24:00,
2013-02-04 05:39:00,54.6,43.0,30.10,NNW,338,0.0,6.0,64,0.00,,,0.00,weatherlink.com 1.10,2013-02-04 10:39:00,
2013-02-04 05:56:00,54.6,41.0,30.11,NNW,337,0.0,0.0,61,0.00,,,0.00,weatherlink.com 1.10,2013-02-04 10:56:00,
2013-02-04 06:09:00,54.1,41.0,30.12,NNW,337,0.0,0.0,61,0.00,,,0.00,weatherlink.com 1.10,2013-02-04 11:09:00,
2013-02-04 06:24:00,53.7,39.0,30.11,NNW,337,0.0,0.0,59,0.00,,,0.00,weatherlink.com 1.10,2013-02-04 11:24:00,
2013-02-04 06:39:00,53.7,38.0,30.12,NNW,337,0.0,0.0,56,0.00,,,0.00,weatherlink.com 1.10,2013-02-04 11:39:00,
2013-02-04 06:54:00,53.1,38.0,30.12,NNW,337,0.0,0.0,58,0.00,,,0.00,weatherlink.com 1.10,2013-02-04 11:54:00,
2013-02-04 07:09:00,53.0,39.0,30.12,NNW,337,0.0,0.0,59,0.00,,,0.00,weatherlink.com 1.10,2013-02-04 12:09:00,
2013-02-04 07:24:00,52.8,39.0,30.12,NNW,337,0.0,4.0,60,0.00,,,0.00,weatherlink.com 1.10,2013-02-04 12:24:00,
2013-02-04 07:39:00,53.2,39.0,30.13,NNW,337,0.0,3.0,60,0.00,,,0.00,weatherlink.com 1.10,2013-02-04 12:39:00,
2013-02-04 07:54:00,54.0,40.0,30.13,NNW,332,0.0,4.0,59,0.00,,,0.00,weatherlink.com 1.10,2013-02-04 12:54:00,
2013-02-04 08:09:00,54.9,40.0,30.13,NNW,333,5.0,5.0,57,0.00,,,0.00,weatherlink.com 1.10,2013-02-04 13:09:00,
2013-02-04 08:24:00,55.8,40.0,30.13,North,354,0.0,7.0,55,0.00,,,0.00,weatherlink.com 1.10,2013-02-04 13:24:00,
2013-02-04 08:39:00,56.9,39.0,30.13,NNW,344,3.0,8.0,52,0.00,,,0.00,weatherlink.com 1.10,2013-02-04 13:39:00,
2013-02-04 08:54:00,58.0,38.0,30.13,NNW,336,0.0,6.0,48,0.00,,,0.00,weatherlink.com 1.10,2013-02-04 13:54:00,
2013-02-04 09:10:00,59.4,39.0,30.14,NNW,337,0.0,0.0,47,0.00,,,0.00,weatherlink.com 1.10,2013-02-04 14:10:00,
2013-02-04 09:25:00,60.4,38.0,30.15,NNW,334,0.0,1.0,44,0.00,,,0.00,weatherlink.com 1.10,2013-02-04 14:25:00,
2013-02-04 09:41:00,62.5,39.0,30.15,NNW,333,0.0,0.0,42,0.00,,,0.00,weatherlink.com 1.10,2013-02-04 14:41:00,
2013-02-04 09:54:00,63.1,38.0,30.15,NNW,333,0.0,1.0,40,0.00,,,0.00,weatherlink.com 1.10,2013-02-04 14:54:00,
2013-02-04 10:09:00,65.2,39.0,30.15,NNW,333,0.0,0.0,38,0.00,,,0.00,weatherlink.com 1.10,2013-02-04 15:09:00,
2013-02-04 10:24:00,66.8,40.0,30.15,NNW,332,0.0,0.0,37,0.00,,,0.00,weatherlink.com 1.10,2013-02-04 15:24:00,
2013-02-04 10:39:00,66.5,39.0,30.14,NNW,332,0.0,1.0,37,0.00,,,0.00,weatherlink.com 1.10,2013-02-04 15:39:00,
2013-02-04 10:55:00,69.0,39.0,30.13,NNW,331,0.0,0.0,34,0.00,,,0.00,weatherlink.com 1.10,2013-02-04 15:55:00,
2013-02-04 11:09:00,69.2,40.0,30.13,ENE,78,1.0,5.0,35,0.00,,,0.00,weatherlink.com 1.10,2013-02-04 16:09:00,
2013-02-04 11:25:00,69.2,40.0,30.12,ENE,58,0.0,0.0,34,0.00,,,0.00,weatherlink.com 1.10,2013-02-04 16:25:00,
2013-02-04 11:40:00,70.2,40.0,30.12,SW,223,0.0,4.0,33,0.00,,,0.00,weatherlink.com 1.10,2013-02-04 16:40:00,
2013-02-04 11:55:00,71.7,41.0,30.11,WSW,237,0.0,7.0,33,0.00,,,0.00,weatherlink.com 1.10,2013-02-04 16:55:00,
2013-02-04 12:10:00,70.5,43.0,30.10,WSW,239,0.0,0.0,37,0.00,,,0.00,weatherlink.com 1.10,2013-02-04 17:10:00,
2013-02-04 12:25:00,72.0,44.0,30.10,SSE,164,0.0,6.0,37,0.00,,,0.00,weatherlink.com 1.10,2013-02-04 17:25:00,
2013-02-04 12:40:00,72.0,46.0,30.09,SE,129,0.0,10.0,40,0.00,,,0.00,weatherlink.com 1.10,2013-02-04 17:40:00,
2013-02-04 12:55:00,71.2,49.0,30.08,SE,124,6.0,11.0,46,0.00,,,0.00,weatherlink.com 1.10,2013-02-04 17:55:00,
2013-02-04 13:10:00,71.7,50.0,30.07,SSE,158,5.0,9.0,46,0.00,,,0.00,weatherlink.com 1.10,2013-02-04 18:10:00,
2013-02-04 13:25:00,71.0,50.0,30.07,ESE,112,8.0,9.0,47,0.00,,,0.00,weatherlink.com 1.10,2013-02-04 18:25:00,
2013-02-04 13:40:00,70.7,49.0,30.06,SSE,152,4.0,9.0,47,0.00,,,0.00,weatherlink.com 1.10,2013-02-04 18:40:00,
2013-02-04 13:55:00,70.5,50.0,30.05,ESE,102,7.0,14.0,49,0.00,,,0.00,weatherlink.com 1.10,2013-02-04 18:55:00,
2013-02-04 14:10:00,71.0,51.0,30.06,ESE,102,8.0,10.0,49,0.00,,,0.00,weatherlink.com 1.10,2013-02-04 19:10:00,
2013-02-04 14:25:00,70.3,51.0,30.05,SSE,167,1.0,13.0,51,0.00,,,0.00,weatherlink.com 1.10,2013-02-04 19:25:00,
2013-02-04 14:40:00,70.2,52.0,30.04,ESE,105,10.0,16.0,52,0.00,,,0.00,weatherlink.com 1.10,2013-02-04 19:40:00,
2013-02-04 14:55:00,70.3,52.0,30.04,East,94,9.0,14.0,53,0.00,,,0.00,weatherlink.com 1.10,2013-02-04 19:55:00,
2013-02-04 15:10:00,70.3,52.0,30.04,ESE,106,12.0,16.0,53,0.00,,,0.00,weatherlink.com 1.10,2013-02-04 20:10:00,
2013-02-04 15:25:00,70.2,53.0,30.04,ENE,77,13.0,15.0,55,0.00,,,0.00,weatherlink.com 1.10,2013-02-04 20:25:00,
2013-02-04 15:40:00,70.8,53.0,30.04,SSE,156,2.0,8.0,54,0.00,,,0.00,weatherlink.com 1.10,2013-02-04 20:40:00,
2013-02-04 15:55:00,71.4,53.0,30.04,SE,137,4.0,12.0,52,0.00,,,0.00,weatherlink.com 1.10,2013-02-04 20:55:00,
2013-02-04 16:10:00,71.2,53.0,30.04,ESE,123,0.0,8.0,53,0.00,,,0.00,weatherlink.com 1.10,2013-02-04 21:10:00,
2013-02-04 16:27:00,70.7,53.0,30.04,SE,125,3.0,8.0,53,0.00,,,0.00,weatherlink.com 1.10,2013-02-04 21:27:00,
2013-02-04 16:40:00,70.5,53.0,30.04,SE,138,3.0,9.0,54,0.00,,,0.00,weatherlink.com 1.10,2013-02-04 21:40:00,
2013-02-04 16:55:00,70.5,53.0,30.04,ESE,121,3.0,8.0,54,0.00,,,0.00,weatherlink.com 1.10,2013-02-04 21:55:00,
2013-02-04 17:10:00,70.3,54.0,30.04,SE,129,2.0,7.0,56,0.00,,,0.00,weatherlink.com 1.10,2013-02-04 22:10:00,
2013-02-04 17:25:00,70.3,54.0,30.04,SE,131,0.0,5.0,56,0.00,,,0.00,weatherlink.com 1.10,2013-02-04 22:25:00,
2013-02-04 17:40:00,70.0,54.0,30.04,SE,143,1.0,5.0,57,0.00,,,0.00,weatherlink.com 1.10,2013-02-04 22:40:00,
2013-02-04 17:55:00,69.8,54.0,30.04,ESE,116,0.0,5.0,57,0.00,,,0.00,weatherlink.com 1.10,2013-02-04 22:55:00,
2013-02-04 18:10:00,69.8,53.0,30.05,SE,128,0.0,4.0,56,0.00,,,0.00,weatherlink.com 1.10,2013-02-04 23:10:00,
2013-02-04 18:25:00,69.5,53.0,30.05,SE,137,0.0,2.0,56,0.00,,,0.00,weatherlink.com 1.10,2013-02-04 23:25:00,
2013-02-04 18:40:00,69.5,52.0,30.06,SE,135,0.0,4.0,55,0.00,,,0.00,weatherlink.com 1.10,2013-02-04 23:40:00,
2013-02-04 18:55:00,69.2,52.0,30.05,SE,136,0.0,2.0,55,0.00,,,0.00,weatherlink.com 1.10,2013-02-04 23:55:00,
2013-02-04 19:10:00,69.2,52.0,30.06,SE,136,0.0,0.0,55,0.00,,,0.00,weatherlink.com 1.10,2013-02-05 00:10:00,
2013-02-04 19:25:00,68.8,52.0,30.06,SE,136,0.0,0.0,55,0.00,,,0.00,weatherlink.com 1.10,2013-02-05 00:25:00,
2013-02-04 19:40:00,68.3,52.0,30.06,SE,136,0.0,0.0,57,0.00,,,0.00,weatherlink.com 1.10,2013-02-05 00:40:00,
2013-02-04 19:55:00,67.8,53.0,30.07,SE,136,0.0,0.0,59,0.00,,,0.00,weatherlink.com 1.10,2013-02-05 00:55:00,
2013-02-04 20:10:00,67.2,53.0,30.07,SE,136,0.0,0.0,61,0.00,,,0.00,weatherlink.com 1.10,2013-02-05 01:10:00,
2013-02-04 20:25:00,66.5,54.0,30.07,SE,136,0.0,0.0,64,0.00,,,0.00,weatherlink.com 1.10,2013-02-05 01:25:00,
2013-02-04 20:40:00,65.9,55.0,30.07,SE,136,0.0,0.0,67,0.00,,,0.00,weatherlink.com 1.10,2013-02-05 01:40:00,
2013-02-04 20:55:00,65.1,54.0,30.07,SE,136,0.0,0.0,68,0.00,,,0.00,weatherlink.com 1.10,2013-02-05 01:55:00,
2013-02-04 21:10:00,64.9,54.0,30.07,SE,136,0.0,0.0,69,0.00,,,0.00,weatherlink.com 1.10,2013-02-05 02:10:00,
2013-02-04 21:25:00,64.6,55.0,30.08,SE,136,0.0,0.0,70,0.00,,,0.00,weatherlink.com 1.10,2013-02-05 02:25:00,
2013-02-04 21:40:00,64.2,54.0,30.07,SE,136,0.0,0.0,69,0.00,,,0.00,weatherlink.com 1.10,2013-02-05 02:40:00,
2013-02-04 21:55:00,64.4,54.0,30.08,SE,136,0.0,0.0,68,0.00,,,0.00,weatherlink.com 1.10,2013-02-05 02:55:00,
2013-02-04 22:10:00,64.2,54.0,30.07,SE,136,0.0,0.0,69,0.00,,,0.00,weatherlink.com 1.10,2013-02-05 03:10:00,
2013-02-04 22:25:00,64.2,53.0,30.07,SE,136,0.0,0.0,67,0.00,,,0.00,weatherlink.com 1.10,2013-02-05 03:25:00,
2013-02-04 22:40:00,64.1,53.0,30.07,SE,136,0.0,0.0,67,0.00,,,0.00,weatherlink.com 1.10,2013-02-05 03:40:00,
2013-02-04 22:55:00,64.1,52.0,30.08,SE,136,0.0,0.0,66,0.00,,,0.00,weatherlink.com 1.10,2013-02-05 03:55:00,
2013-02-04 23:10:00,63.6,53.0,30.08,SE,136,0.0,0.0,68,0.00,,,0.00,weatherlink.com 1.10,2013-02-05 04:10:00,
2013-02-04 23:25:00,63.1,53.0,30.08,SE,136,0.0,0.0,70,0.00,,,0.00,weatherlink.com 1.10,2013-02-05 04:25:00,
2013-02-04 23:40:00,63.6,54.0,30.08,SE,136,0.0,2.0,70,0.00,,,0.00,weatherlink.com 1.10,2013-02-05 04:40:00,
2013-02-04 23:55:00,63.8,53.0,30.07,SE,136,0.0,0.0,69,0.00,,,0.00,weatherlink.com 1.10,2013-02-05 04:55:00,